CCA2107 ZGCJ-ZJSY
Flight info
| Callsign | CCA2107 |
|---|---|
| Flight time | N/A |
| Altitude | 25600 |
| Route | P168 G586 MAMSI R343 ENKUS X28 LH W71 AGPOR V12 NYB G221 UPRIS |
| Aircraft | B738/M-SDE2E3FGHIRWXY/LB1 |
Departure
| Time | 2026-04-30 14:37 |
|---|---|
| Airport | Huaihua Zhijiang Airport (ZGCJ) |
Arrival
| Time | N/A |
|---|---|
| Airport | Sanya Phoenix International Airport (ZJSY) |
| Time | Latitude | Longitude | Altitude | Speed | Heading |
|---|---|---|---|---|---|
| 2026-04-30 14:09 | 27.44473 | 109.70210 | 856 ft | 0 kts | 306° |
| 2026-04-30 14:26 | 27.44472 | 109.70211 | 856 ft | 2 kts | 306° |
| 2026-04-30 14:26 | 27.44443 | 109.70254 | 854 ft | 4 kts | 316° |
| 2026-04-30 14:27 | 27.44422 | 109.70269 | 853 ft | 4 kts | 354° |
| 2026-04-30 14:27 | 27.44396 | 109.70265 | 853 ft | 4 kts | 25° |
| 2026-04-30 14:27 | 27.44376 | 109.70252 | 853 ft | 1 kts | 37° |
| 2026-04-30 14:31 | 27.44380 | 109.70256 | 851 ft | 2 kts | 37° |
| 2026-04-30 14:31 | 27.44411 | 109.70284 | 847 ft | 8 kts | 53° |
| 2026-04-30 14:32 | 27.44366 | 109.70389 | 847 ft | 8 kts | 126° |
| 2026-04-30 14:32 | 27.44336 | 109.70438 | 844 ft | 7 kts | 112° |
| 2026-04-30 14:32 | 27.44352 | 109.70488 | 837 ft | 7 kts | 40° |
| 2026-04-30 14:33 | 27.44404 | 109.70532 | 837 ft | 13 kts | 36° |
| 2026-04-30 14:33 | 27.44634 | 109.70724 | 834 ft | 28 kts | 37° |
| 2026-04-30 14:33 | 27.44786 | 109.70851 | 845 ft | 26 kts | 37° |
| 2026-04-30 14:34 | 27.44929 | 109.70971 | 832 ft | 25 kts | 37° |
| 2026-04-30 14:34 | 27.45063 | 109.71084 | 848 ft | 23 kts | 37° |
| 2026-04-30 14:34 | 27.45189 | 109.71188 | 847 ft | 22 kts | 37° |
| 2026-04-30 14:34 | 27.45312 | 109.71291 | 847 ft | 22 kts | 37° |
| 2026-04-30 14:35 | 27.45490 | 109.71412 | 837 ft | 9 kts | 10° |
| 2026-04-30 14:35 | 27.45538 | 109.71437 | 841 ft | 7 kts | 54° |
| 2026-04-30 14:35 | 27.45517 | 109.71464 | 838 ft | 6 kts | 204° |
| 2026-04-30 14:36 | 27.45479 | 109.71431 | 842 ft | 8 kts | 217° |
| 2026-04-30 14:36 | 27.45302 | 109.71283 | 847 ft | 65 kts | 217° |
| 2026-04-30 14:36 | 27.44764 | 109.70833 | 845 ft | 128 kts | 217° |
| 2026-04-30 14:36 | 27.43902 | 109.70111 | 903 ft | 175 kts | 215° |
| 2026-04-30 14:37 | 27.42886 | 109.69360 | 1540 ft | 178 kts | 211° |
| 2026-04-30 14:37 | 27.41810 | 109.68631 | 2249 ft | 183 kts | 210° |
| 2026-04-30 14:37 | 27.40690 | 109.67912 | 2881 ft | 191 kts | 208° |
| 2026-04-30 14:37 | 27.39448 | 109.67158 | 3160 ft | 213 kts | 206° |
| 2026-04-30 14:38 | 27.38086 | 109.66406 | 3521 ft | 223 kts | 202° |
| 2026-04-30 14:38 | 27.36544 | 109.65844 | 3714 ft | 245 kts | 191° |
| 2026-04-30 14:38 | 27.34793 | 109.65438 | 4130 ft | 262 kts | 189° |
| 2026-04-30 14:38 | 27.33004 | 109.65060 | 4955 ft | 261 kts | 188° |
| 2026-04-30 14:39 | 27.31235 | 109.64706 | 5674 ft | 264 kts | 188° |
| 2026-04-30 14:39 | 27.29403 | 109.64369 | 6376 ft | 268 kts | 188° |
| 2026-04-30 14:39 | 27.27547 | 109.64038 | 7046 ft | 271 kts | 188° |
| 2026-04-30 14:40 | 27.23788 | 109.63329 | 8355 ft | 277 kts | 194° |
| 2026-04-30 14:40 | 27.21921 | 109.62733 | 8999 ft | 280 kts | 198° |
| 2026-04-30 14:40 | 27.20053 | 109.62060 | 9684 ft | 283 kts | 199° |
| 2026-04-30 14:40 | 27.18173 | 109.61372 | 10299 ft | 286 kts | 199° |
| 2026-04-30 14:41 | 27.16267 | 109.60678 | 10887 ft | 289 kts | 199° |
| 2026-04-30 14:41 | 27.14353 | 109.59987 | 11308 ft | 300 kts | 199° |
| 2026-04-30 14:41 | 27.12296 | 109.59248 | 11458 ft | 321 kts | 199° |
| 2026-04-30 14:41 | 27.10106 | 109.58470 | 11600 ft | 340 kts | 199° |
| 2026-04-30 14:42 | 27.07786 | 109.57651 | 11725 ft | 357 kts | 199° |
| 2026-04-30 14:42 | 27.05378 | 109.56806 | 12034 ft | 368 kts | 199° |
| 2026-04-30 14:42 | 27.02917 | 109.55946 | 12486 ft | 372 kts | 199° |
| 2026-04-30 14:42 | 27.00436 | 109.55081 | 13064 ft | 374 kts | 199° |
| 2026-04-30 14:43 | 26.97938 | 109.54209 | 13586 ft | 378 kts | 199° |
| 2026-04-30 14:43 | 26.95412 | 109.53327 | 14079 ft | 382 kts | 200° |
| 2026-04-30 14:43 | 26.92898 | 109.52450 | 14563 ft | 385 kts | 200° |
| 2026-04-30 14:43 | 26.90335 | 109.51556 | 15075 ft | 387 kts | 200° |
| 2026-04-30 14:44 | 26.87753 | 109.50656 | 15572 ft | 390 kts | 200° |
| 2026-04-30 14:44 | 26.85155 | 109.49750 | 16056 ft | 393 kts | 200° |
| 2026-04-30 14:44 | 26.82539 | 109.48839 | 16523 ft | 395 kts | 200° |
| 2026-04-30 14:44 | 26.79903 | 109.47920 | 17004 ft | 398 kts | 200° |
| 2026-04-30 14:45 | 26.77246 | 109.46995 | 17464 ft | 401 kts | 200° |
| 2026-04-30 14:45 | 26.74576 | 109.46065 | 17911 ft | 403 kts | 199° |
| 2026-04-30 14:45 | 26.71923 | 109.45142 | 18343 ft | 406 kts | 199° |
| 2026-04-30 14:45 | 26.69218 | 109.44201 | 18709 ft | 409 kts | 199° |
| 2026-04-30 14:46 | 26.66491 | 109.43252 | 19073 ft | 411 kts | 199° |
| 2026-04-30 14:46 | 26.63755 | 109.42300 | 19425 ft | 414 kts | 199° |
| 2026-04-30 14:46 | 26.61001 | 109.41342 | 19797 ft | 415 kts | 199° |
| 2026-04-30 14:46 | 26.58230 | 109.40379 | 20177 ft | 417 kts | 199° |
| 2026-04-30 14:47 | 26.55451 | 109.39416 | 20534 ft | 420 kts | 199° |
| 2026-04-30 14:47 | 26.52651 | 109.38445 | 20903 ft | 422 kts | 199° |
| 2026-04-30 14:47 | 26.49877 | 109.37481 | 21249 ft | 424 kts | 200° |
| 2026-04-30 14:47 | 26.47054 | 109.36499 | 21596 ft | 427 kts | 200° |
| 2026-04-30 14:48 | 26.44213 | 109.35509 | 21935 ft | 429 kts | 200° |
| 2026-04-30 14:48 | 26.41360 | 109.34514 | 22257 ft | 431 kts | 200° |
| 2026-04-30 14:48 | 26.38492 | 109.33513 | 22581 ft | 433 kts | 200° |
| 2026-04-30 14:48 | 26.35614 | 109.32510 | 22925 ft | 434 kts | 200° |
| 2026-04-30 14:49 | 26.32722 | 109.31501 | 23233 ft | 436 kts | 200° |
| 2026-04-30 14:49 | 26.29818 | 109.30487 | 23535 ft | 438 kts | 200° |
| 2026-04-30 14:49 | 26.26902 | 109.29470 | 23793 ft | 440 kts | 200° |
| 2026-04-30 14:49 | 26.24009 | 109.28463 | 24032 ft | 442 kts | 200° |
| 2026-04-30 14:50 | 26.17963 | 109.27101 | 24488 ft | 456 kts | 178° |
| 2026-04-30 14:50 | 26.14845 | 109.27856 | 24749 ft | 464 kts | 162° |
| 2026-04-30 14:51 | 26.09417 | 109.31828 | 25229 ft | 473 kts | 142° |
| 2026-04-30 14:51 | 26.06899 | 109.34201 | 25423 ft | 476 kts | 141° |
| 2026-04-30 14:51 | 26.01828 | 109.38992 | 25835 ft | 480 kts | 142° |
| 2026-04-30 14:52 | 25.99305 | 109.41332 | 26046 ft | 481 kts | 142° |
| 2026-04-30 14:52 | 25.94119 | 109.46071 | 26460 ft | 484 kts | 142° |
| 2026-04-30 14:52 | 25.91507 | 109.48444 | 26638 ft | 486 kts | 142° |
| 2026-04-30 14:53 | 25.86241 | 109.53225 | 26655 ft | 491 kts | 142° |
| 2026-04-30 14:53 | 25.83603 | 109.55619 | 26659 ft | 490 kts | 142° |
| 2026-04-30 14:54 | 25.78378 | 109.60364 | 26658 ft | 488 kts | 142° |
| 2026-04-30 14:54 | 25.73330 | 109.65403 | 26663 ft | 488 kts | 137° |
| 2026-04-30 14:55 | 25.68468 | 109.70665 | 26668 ft | 489 kts | 137° |
| 2026-04-30 14:55 | 25.66033 | 109.73298 | 26662 ft | 489 kts | 137° |
| 2026-04-30 14:55 | 25.61132 | 109.78528 | 26663 ft | 489 kts | 137° |
| 2026-04-30 14:56 | 25.56238 | 109.83694 | 26670 ft | 490 kts | 138° |
| 2026-04-30 14:56 | 25.51297 | 109.88895 | 26673 ft | 491 kts | 138° |
| 2026-04-30 14:57 | 25.48822 | 109.91499 | 26670 ft | 491 kts | 138° |
| 2026-04-30 14:57 | 25.43864 | 109.96713 | 26660 ft | 492 kts | 138° |
| 2026-04-30 14:58 | 25.38902 | 110.01926 | 26650 ft | 491 kts | 138° |
| 2026-04-30 14:58 | 25.36459 | 110.04490 | 26661 ft | 491 kts | 138° |
| 2026-04-30 14:58 | 25.31508 | 110.09677 | 26657 ft | 490 kts | 138° |
| 2026-04-30 14:59 | 25.26517 | 110.14801 | 26658 ft | 488 kts | 145° |
| 2026-04-30 15:00 | 25.17092 | 110.17130 | 26685 ft | 465 kts | 192° |
| 2026-04-30 15:00 | 25.11206 | 110.14511 | 26687 ft | 456 kts | 215° |
| 2026-04-30 15:01 | 25.06003 | 110.10582 | 26674 ft | 457 kts | 217° |
| 2026-04-30 15:01 | 25.03393 | 110.08578 | 26666 ft | 458 kts | 217° |
| 2026-04-30 15:01 | 24.98132 | 110.04594 | 26541 ft | 458 kts | 216° |
| 2026-04-30 15:02 | 24.95498 | 110.02626 | 26292 ft | 456 kts | 216° |
| 2026-04-30 15:02 | 24.92872 | 110.00672 | 26056 ft | 456 kts | 216° |
| 2026-04-30 15:03 | 24.84984 | 109.94817 | 25675 ft | 458 kts | 216° |
| 2026-04-30 15:03 | 24.79704 | 109.90897 | 25655 ft | 458 kts | 216° |
| 2026-04-30 15:04 | 24.74416 | 109.86974 | 25651 ft | 459 kts | 216° |
| 2026-04-30 15:04 | 24.65738 | 109.82693 | 25657 ft | 468 kts | 188° |
| 2026-04-30 15:05 | 24.55998 | 109.83662 | 25651 ft | 473 kts | 173° |
| 2026-04-30 15:06 | 24.49483 | 109.84725 | 25641 ft | 473 kts | 174° |
| 2026-04-30 15:06 | 24.42960 | 109.85729 | 25642 ft | 473 kts | 174° |
| 2026-04-30 15:07 | 24.36439 | 109.86697 | 25646 ft | 473 kts | 174° |
| 2026-04-30 15:07 | 24.29961 | 109.87648 | 25645 ft | 473 kts | 174° |
| 2026-04-30 15:08 | 24.23439 | 109.88606 | 25648 ft | 473 kts | 174° |
| 2026-04-30 15:08 | 24.13668 | 109.90043 | 25654 ft | 472 kts | 174° |
| 2026-04-30 15:09 | 24.07192 | 109.90994 | 25656 ft | 473 kts | 174° |
| 2026-04-30 15:09 | 24.00676 | 109.91950 | 25655 ft | 473 kts | 174° |
| 2026-04-30 15:10 | 23.94158 | 109.92906 | 25657 ft | 473 kts | 174° |
| 2026-04-30 15:11 | 23.81121 | 109.94814 | 25662 ft | 473 kts | 174° |
| 2026-04-30 15:11 | 23.74648 | 109.95760 | 25658 ft | 473 kts | 174° |
| 2026-04-30 15:12 | 23.64874 | 109.97187 | 25653 ft | 472 kts | 174° |
| 2026-04-30 15:13 | 23.58365 | 109.98136 | 25661 ft | 472 kts | 174° |
| 2026-04-30 15:14 | 23.45401 | 110.00023 | 25667 ft | 471 kts | 174° |
| 2026-04-30 15:14 | 23.35646 | 110.01440 | 25650 ft | 472 kts | 174° |
| 2026-04-30 15:16 | 23.19390 | 110.03798 | 25654 ft | 473 kts | 174° |
| 2026-04-30 15:17 | 23.06344 | 110.05685 | 25646 ft | 473 kts | 174° |
| 2026-04-30 15:18 | 22.90122 | 110.08027 | 25658 ft | 471 kts | 174° |
| 2026-04-30 15:19 | 22.80390 | 110.09427 | 25656 ft | 470 kts | 174° |